Flight Track Log - Related Links

Times and Time Zones

All times are in EDT time to prevent confusion due to time zone crossing. See the SKW7366 flight status page for this flight to view local times or setup timezone preferences in your user account.

Time Position Orientation Groundspeed Altitude Reporting Facility
EDT Latitude Longitude Course Direction KTS MPH feet Rate Location/Type
Tue 01:35:41 PM 45.0581 -83.5606 196° South 208 239 1,200  Level Minneapolis Center
Tue 01:37:06 PM 44.9883 -83.5897 196° South 216 249 4,000 1,530 Climbing Minneapolis Center
Tue 01:38:10 PM 44.9231 -83.6114 193° South 225 259 5,000 476 Climbing Minneapolis Center
Tue 01:39:12 PM 44.8489 -83.6369 194° South 250 288 5,000  Level Minneapolis Center
Tue 01:40:14 PM 44.7803 -83.6603 194° South 255 293 5,000  Level Minneapolis Center
Tue 01:41:28 PM 44.7036 -83.6864 194° South 263 303 5,000  Level Minneapolis Center
Tue 01:42:31 PM 44.6139 -83.7161 193° South 269 310 5,000  Level Minneapolis Center
Tue 01:43:33 PM 44.5433 -83.7403 194° South 266 306 5,000  Level Minneapolis Center
Tue 01:44:35 PM 44.4656 -83.7667 194° South 267 307 5,000  Level Minneapolis Center
Tue 01:45:37 PM 44.3933 -83.7919 194° South 270 311 5,000  Level Minneapolis Center
Tue 01:46:39 PM 44.3167 -83.8172 193° South 266 306 5,000 242 Level Minneapolis Center
Tue 01:47:41 PM 44.2392 -83.8422 193° South 267 307 5,500 1,694 Climbing Minneapolis Center
Tue 01:48:43 PM 44.1664 -83.8667 194° South 272 313 8,500 2,806 Climbing Minneapolis Center
Tue 01:49:45 PM 44.0875 -83.8919 193° South 272 313 11,300 2,304 Climbing Minneapolis Center
Tue 01:50:48 PM 44.0108 -83.9169 193° South 285 328 13,300 1,632 Climbing Minneapolis Center
Tue 01:51:50 PM 43.9267 -83.9467 194° South 309 356 14,700 774 Climbing Minneapolis Center
Tue 01:52:52 PM 43.8350 -83.9789 194° South 323 372 14,900 98 Climbing Minneapolis Center
Tue 01:53:53 PM 43.7544 -84.0089 195° South 347 399 14,900  Level Minneapolis Center
Tue 01:54:56 PM 43.6297 -84.0531 194° South 368 423 14,900 -288 Level Minneapolis Center
Tue 01:55:58 PM 43.5089 -84.0431 177° South 390 449 14,300 -823 Descending Minneapolis Center
Tue 01:57:00 PM 43.4114 -83.9978 161° South 377 434 13,200 -1,016 Descending Minneapolis Center
Tue 01:58:02 PM 43.3147 -83.9531 161° South 373 429 12,200 -629 Descending Minneapolis Center
Tue 01:59:04 PM 43.2194 -83.9092 161° South 368 423 11,900 -145 Descending Minneapolis Center
Tue 02:00:06 PM 43.1256 -83.8664 162° South 364 419 11,900  Level Minneapolis Center
Tue 02:01:08 PM 43.0344 -83.8247 162° South 358 412 11,900 58 Level Minneapolis Center
Tue 02:01:50 PM 42.9614 -83.7947 163° South 321 369 12,000 81 Climbing Cleveland Center
Tue 02:02:22 PM 42.9142 -83.7725 161° South 337 388 12,000 90 Level Cleveland Center
Tue 02:02:57 PM 42.8711 -83.7506 160° South 303 349 12,100 -63 Climbing Cleveland Center
Tue 02:03:58 PM 42.7889 -83.7094 160° South 309 356 11,900 -197 Descending Cleveland Center

Login

Don't have an account? Register now (free) for customized features, flight alerts, and more!